Time;durP1;ratioP1;P1;durP2;ratioP2;P2;SDS_P1;SDS_P2;PMS_P1;PMS_P2;Temp;Humidity;BMP_temperature;BMP_pressure;BME280_temperature;BME280_humidity;BME280_pressure;Samples;Min_cycle;Max_cycle;Signal;HPM_P1;HPM_P2
2022/04/24 00:01:56;;;;;;;8.02;4.95;;;14.20;65.20;;;13.30;51.06;99157.03;5051846;28;20042;-79
2022/04/24 00:04:24;;;;;;;7.70;4.93;;;14.10;65.40;;;13.29;51.34;99155.34;5052775;28;20041;-79
2022/04/24 00:06:53;;;;;;;7.05;5.03;;;14.10;65.70;;;13.24;51.21;99149.75;5049070;28;20102;-79
2022/04/24 00:09:22;;;;;;;6.90;5.15;;;14.00;65.70;;;13.17;51.42;99154.50;5053327;28;20056;-79
2022/04/24 00:11:50;;;;;;;6.97;5.05;;;14.00;66.00;;;13.09;51.69;99144.75;5052434;28;20111;-79
2022/04/24 00:14:19;;;;;;;6.20;4.80;;;13.80;66.30;;;13.08;51.96;99140.34;5053463;28;20037;-79
2022/04/24 00:16:47;;;;;;;6.90;4.95;;;13.80;66.60;;;13.07;52.08;99146.88;5051779;28;20048;-79
2022/04/24 00:19:18;;;;;;;7.55;5.28;;;13.90;66.60;;;13.04;51.78;99146.50;5048416;28;20072;-79
2022/04/24 00:21:46;;;;;;;8.80;5.13;;;13.80;66.50;;;12.96;52.00;99144.13;5053671;28;20048;-79
2022/04/24 00:24:13;;;;;;;6.70;4.90;;;13.80;66.60;;;12.97;52.16;99137.63;5052482;28;20481;-79
2022/04/24 00:26:42;;;;;;;7.68;5.50;;;13.70;67.50;;;12.91;52.66;99140.19;5047128;28;20045;-79
2022/04/24 00:29:10;;;;;;;7.68;5.30;;;13.70;67.20;;;12.87;52.31;99138.16;5053082;28;20495;-79
2022/04/24 00:31:37;;;;;;;7.72;5.18;;;13.60;67.10;;;12.85;52.59;99143.88;5044984;28;20045;-79
2022/04/24 00:34:04;;;;;;;7.22;5.45;;;13.60;67.30;;;12.82;53.06;99149.78;5043090;28;20080;-79
2022/04/24 00:36:31;;;;;;;7.78;5.10;;;13.60;67.40;;;12.76;52.65;99142.53;5032872;28;20045;-79
2022/04/24 00:38:58;;;;;;;8.27;5.15;;;13.50;67.60;;;12.73;53.22;99139.44;5033046;28;20530;-79
2022/04/24 00:41:26;;;;;;;8.40;5.60;;;13.50;67.90;;;12.70;53.46;99138.84;5044371;28;20037;-79
2022/04/24 00:43:55;;;;;;;9.25;5.57;;;13.50;68.20;;;12.66;53.05;99131.31;5032556;28;20137;-79
2022/04/24 00:46:57;;;;;;;;;;;13.40;68.10;;;12.64;53.50;99134.31;5032930;28;20072;-79
2022/04/24 00:49:25;;;;;;;8.38;5.72;;;13.40;68.30;;;12.61;53.52;99139.41;5035072;28;19924;-79
2022/04/24 00:51:53;;;;;;;6.70;4.88;;;13.30;68.30;;;12.54;53.37;99138.66;5052254;28;20504;-79
2022/04/24 00:54:21;;;;;;;7.45;5.05;;;13.30;68.50;;;12.48;54.13;99146.69;5052046;28;20049;-79
2022/04/24 00:56:48;;;;;;;7.57;5.40;;;13.30;68.80;;;12.43;54.07;99146.56;5052630;28;20471;-79
2022/04/24 00:59:17;;;;;;;7.72;5.30;;;13.20;69.00;;;12.41;53.85;99145.94;5052007;28;20041;-79
2022/04/24 01:01:45;;;;;;;8.50;5.38;;;13.10;69.30;;;12.36;54.17;99143.09;5051778;28;20080;-79
2022/04/24 01:04:13;;;;;;;14.23;5.93;;;13.10;69.40;;;12.31;54.18;99145.69;5036000;28;20237;-79
2022/04/24 01:06:43;;;;;;;7.20;5.43;;;13.00;69.40;;;12.29;54.35;99145.06;5052196;28;20495;-79
2022/04/24 01:09:13;;;;;;;7.32;5.45;;;13.00;69.70;;;12.23;54.70;99146.00;5048628;28;20722;-79
2022/04/24 01:11:41;;;;;;;8.80;5.57;;;13.00;69.80;;;12.17;54.78;99138.75;5037925;28;20037;-79
2022/04/24 01:14:09;;;;;;;7.78;5.65;;;12.90;70.00;;;12.18;55.16;99140.38;5049852;28;20091;-79
2022/04/24 01:16:38;;;;;;;7.75;5.40;;;12.90;70.10;;;12.19;55.36;99148.34;5049931;28;20064;-79
2022/04/24 01:19:06;;;;;;;8.48;5.90;;;13.00;70.30;;;12.16;55.25;99142.50;5051501;28;20048;-79
2022/04/24 01:21:36;;;;;;;7.72;5.55;;;12.90;70.40;;;12.14;55.31;99142.72;5052315;28;20072;-79
2022/04/24 01:24:07;;;;;;;9.73;5.47;;;12.80;70.50;;;12.12;55.39;99137.50;5039306;28;20037;-79
2022/04/24 01:26:35;;;;;;;7.45;5.85;;;12.90;70.60;;;12.10;55.80;99149.72;5034007;28;20418;-79
2022/04/24 01:29:04;;;;;;;6.97;5.40;;;12.90;70.60;;;12.05;55.36;99147.69;5036985;28;20144;-79
2022/04/24 01:31:31;;;;;;;7.65;5.90;;;12.80;70.60;;;12.04;55.53;99137.81;5031823;28;20056;-79
2022/04/24 01:33:58;;;;;;;7.88;5.78;;;12.80;70.90;;;11.98;55.60;99138.75;5043547;28;20040;-79
2022/04/24 01:36:26;;;;;;;7.85;5.95;;;12.80;70.90;;;11.94;56.08;99140.25;5031961;28;20049;-79
2022/04/24 01:38:55;;;;;;;7.47;5.50;;;12.70;71.30;;;11.93;55.99;99138.59;5043977;28;20128;-79
2022/04/24 01:41:22;;;;;;;10.82;6.20;;;12.70;71.40;;;11.93;55.80;99144.03;5050116;28;20040;-79
2022/04/24 01:43:49;;;;;;;9.20;6.13;;;12.70;71.20;;;11.90;56.04;99139.06;5038340;28;20036;-79
2022/04/24 01:46:17;;;;;;;8.45;6.20;;;12.60;71.30;;;11.88;56.23;99141.13;5047730;28;20073;-79
2022/04/24 01:48:44;;;;;;;7.30;5.80;;;12.60;71.50;;;11.86;56.01;99145.97;5050916;28;20052;-79
2022/04/24 01:51:13;;;;;;;8.35;5.78;;;12.60;71.60;;;11.80;56.51;99144.97;5051559;28;20525;-79
2022/04/24 01:53:40;;;;;;;11.38;6.20;;;12.50;71.60;;;11.72;56.22;99143.38;5037665;28;20045;-79
2022/04/24 01:56:10;;;;;;;8.50;6.07;;;12.40;71.70;;;11.71;56.51;99141.72;5050076;28;20045;-79
2022/04/24 01:58:38;;;;;;;10.43;6.50;;;12.40;71.90;;;11.69;56.73;99143.84;5038936;28;20499;-79
2022/04/24 02:01:06;;;;;;;8.20;6.20;;;12.50;72.30;;;11.70;56.94;99145.50;5031272;28;20099;-79
2022/04/24 02:03:35;;;;;;;8.93;5.78;;;12.40;72.30;;;11.69;56.97;99143.84;5016408;28;20049;-79
2022/04/24 02:06:03;;;;;;;10.60;6.78;;;12.40;72.20;;;11.61;57.11;99140.56;5048575;28;20037;-79
2022/04/24 02:08:31;;;;;;;8.50;6.28;;;12.30;72.40;;;11.60;56.96;99138.94;5036510;28;20045;-79
2022/04/24 02:10:59;;;;;;;10.13;7.15;;;12.40;72.60;;;11.58;57.32;99139.16;5031067;28;20045;-79
2022/04/24 02:13:27;;;;;;;8.00;6.40;;;12.30;73.00;;;11.54;57.58;99135.22;5047907;28;20049;-79
2022/04/24 02:15:55;;;;;;;8.73;6.53;;;12.30;73.00;;;11.52;57.45;99138.16;5049636;28;20110;-79
2022/04/24 02:18:22;;;;;;;9.40;6.63;;;12.20;73.20;;;11.50;57.63;99139.44;5050861;28;20051;-79
2022/04/24 02:20:49;;;;;;;8.95;6.70;;;12.20;73.20;;;11.45;57.51;99136.56;5039728;28;20041;-79
2022/04/24 02:23:16;;;;;;;10.57;6.82;;;12.20;73.10;;;11.40;57.79;99133.66;5039653;28;20040;-79
2022/04/24 02:25:44;;;;;;;8.55;6.68;;;12.10;73.60;;;11.39;57.87;99137.47;5047111;28;20041;-79
2022/04/24 02:28:11;;;;;;;9.82;7.05;;;12.20;73.60;;;11.34;58.32;99136.22;5050837;28;20049;-79
2022/04/24 02:30:39;;;;;;;10.32;6.60;;;12.20;73.70;;;11.29;58.49;99136.06;5050894;28;20135;-79
2022/04/24 02:33:06;;;;;;;10.13;7.20;;;12.10;73.70;;;11.22;58.36;99138.00;5048925;28;20493;-79
2022/04/24 02:35:34;;;;;;;9.68;7.35;;;12.00;73.70;;;11.15;58.59;99138.06;5049878;28;20044;-79
2022/04/24 02:38:01;;;;;;;8.95;6.40;;;11.80;74.20;;;11.04;58.79;99143.38;5050738;28;20495;-79
2022/04/24 02:40:28;;;;;;;9.90;6.78;;;11.70;74.70;;;11.04;59.01;99144.25;5049781;28;20371;-79
2022/04/24 02:42:56;;;;;;;8.50;6.45;;;11.80;74.90;;;11.02;59.00;99137.34;5041251;28;20350;-79
2022/04/24 02:45:23;;;;;;;9.10;7.07;;;11.70;75.00;;;11.00;59.13;99142.16;5047155;28;20044;-79
2022/04/24 02:47:51;;;;;;;8.88;6.88;;;11.70;75.10;;;10.96;59.07;99148.03;5050186;28;20041;-79
2022/04/24 02:50:19;;;;;;;10.30;7.35;;;11.60;75.10;;;10.92;59.38;99144.09;5050349;28;20060;-79
2022/04/24 02:52:51;;;;;;;8.25;6.80;;;11.60;75.20;;;10.90;59.56;99140.78;5034241;28;20025;-79
2022/04/24 02:55:18;;;;;;;;;;;11.60;75.40;;;10.85;59.59;99143.34;5050553;28;20045;-79
2022/04/24 02:57:47;;;;;;;9.48;6.95;;;11.50;75.70;;;10.82;59.77;99143.78;5031725;28;20382;-79
2022/04/24 03:00:19;;;;;;;10.27;6.93;;;11.50;75.70;;;10.82;59.83;99142.94;5050253;28;20072;-79
2022/04/24 03:02:47;;;;;;;12.32;7.70;;;11.50;75.80;;;10.80;60.35;99134.16;5034978;28;20042;-79
2022/04/24 03:05:19;;;;;;;9.77;7.55;;;11.50;76.20;;;10.75;60.39;99140.25;5045997;28;20052;-79
2022/04/24 03:07:47;;;;;;;9.95;7.40;;;11.50;76.20;;;10.73;60.65;99145.09;5049507;28;20076;-79
2022/04/24 03:10:16;;;;;;;9.65;7.25;;;11.50;76.50;;;10.70;60.57;99145.50;5050133;28;20138;-79
2022/04/24 03:12:44;;;;;;;11.35;7.85;;;11.40;76.50;;;10.61;60.99;99144.97;5041633;28;20049;-79
2022/04/24 03:15:14;;;;;;;10.13;7.80;;;11.30;77.00;;;10.60;61.10;99145.16;5045291;28;20491;-79
2022/04/24 03:17:41;;;;;;;15.02;7.97;;;11.30;77.20;;;10.55;61.02;99138.50;5049345;28;20041;-79
2022/04/24 03:20:11;;;;;;;9.88;7.65;;;11.30;77.20;;;10.54;61.35;99144.97;5049958;28;20124;-79
2022/04/24 03:22:40;;;;;;;10.85;7.57;;;11.20;77.50;;;10.48;61.83;99143.13;5034069;28;20049;-79
2022/04/24 03:25:10;;;;;;;10.98;7.93;;;11.20;77.80;;;10.44;61.77;99141.91;5048599;28;20045;-78
2022/04/24 03:27:39;;;;;;;9.93;7.38;;;11.10;77.90;;;10.43;61.72;99140.22;5049315;28;20597;-79
2022/04/24 03:30:10;;;;;;;11.25;8.25;;;11.10;77.90;;;10.42;61.99;99141.28;5049782;28;20167;-78
2022/04/24 03:32:38;;;;;;;9.68;7.65;;;11.20;77.90;;;10.41;62.17;99142.34;5019868;28;20083;-79
2022/04/24 03:35:08;;;;;;;10.85;7.93;;;11.10;78.20;;;10.39;62.16;99133.56;5049641;28;20128;-78
2022/04/24 03:37:36;;;;;;;12.27;8.15;;;11.10;78.00;;;10.36;62.02;99139.44;5049273;28;20037;-79
2022/04/24 03:40:07;;;;;;;12.57;8.32;;;11.10;78.00;;;10.36;62.17;99147.63;5049788;28;20044;-79
2022/04/24 03:42:35;;;;;;;;;;;11.00;78.10;;;10.24;62.78;99141.97;5038245;28;20040;-79
2022/04/24 03:45:04;;;;;;;15.32;9.05;;;11.00;78.70;;;10.22;63.01;99143.25;5031751;28;19971;-79
2022/04/24 03:47:31;;;;;;;11.98;8.75;;;11.00;78.70;;;10.23;62.89;99136.78;5048674;28;20051;-79
2022/04/24 03:49:58;;;;;;;14.93;8.30;;;11.00;78.60;;;10.17;62.98;99127.59;5049511;28;20568;-79
2022/04/24 03:52:25;;;;;;;12.23;8.88;;;10.90;79.00;;;10.16;63.23;99134.06;5040348;28;20040;-79
2022/04/24 03:54:53;;;;;;;13.80;8.52;;;10.90;79.20;;;10.11;63.60;99140.16;5049410;28;20080;-79
2022/04/24 03:57:21;;;;;;;13.13;9.35;;;10.90;79.50;;;10.03;63.90;99145.00;5048934;28;20128;-79
2022/04/24 03:59:49;;;;;;;12.38;8.98;;;10.70;79.90;;;9.99;64.23;99144.59;5049496;28;20112;-79
2022/04/24 04:02:16;;;;;;;14.40;9.70;;;10.70;80.00;;;9.97;64.31;99143.97;5047363;28;20047;-79
2022/04/24 04:04:44;;;;;;;16.90;9.65;;;10.70;80.20;;;9.98;64.33;99146.47;5051677;28;20036;-79
2022/04/24 04:07:11;;;;;;;13.55;9.63;;;10.70;80.30;;;9.95;64.60;99143.34;5048974;28;20087;-78
2022/04/24 04:09:39;;;;;;;12.60;9.32;;;10.70;80.70;;;9.92;64.72;99146.50;5040655;28;20033;-79
2022/04/24 04:12:07;;;;;;;12.65;9.57;;;10.60;80.80;;;9.90;65.08;99151.31;5039083;28;20120;-78
2022/04/24 04:14:36;;;;;;;14.40;10.18;;;10.70;80.70;;;9.84;65.16;99153.00;5023886;28;20140;-78
2022/04/24 04:17:04;;;;;;;12.48;9.23;;;10.50;81.20;;;9.86;65.13;99150.06;5049526;28;20064;-78
2022/04/24 04:19:31;;;;;;;13.27;10.00;;;10.60;81.20;;;9.80;65.67;99154.47;5048845;28;20045;-79
2022/04/24 04:21:59;;;;;;;15.15;10.35;;;10.50;81.50;;;9.74;66.06;99160.75;5042683;28;20137;-78
2022/04/24 04:24:26;;;;;;;12.43;9.88;;;10.50;81.80;;;9.77;65.91;99160.34;5042698;28;20043;-78
2022/04/24 04:26:53;;;;;;;11.93;9.27;;;10.50;81.90;;;9.75;66.34;99157.84;5049276;28;20045;-79
2022/04/24 04:29:21;;;;;;;16.77;9.27;;;10.50;81.90;;;9.75;66.61;99159.72;5048692;28;20087;-78
2022/04/24 04:31:49;;;;;;;12.85;9.48;;;10.50;82.00;;;9.73;66.15;99157.22;5042122;28;20045;-78
2022/04/24 04:34:16;;;;;;;14.95;9.88;;;10.50;81.90;;;9.72;66.62;99163.69;5048400;28;20037;-78
2022/04/24 04:36:44;;;;;;;13.73;9.30;;;10.50;82.10;;;9.73;66.52;99162.66;5051093;28;20066;-78
2022/04/24 04:39:11;;;;;;;16.92;9.60;;;10.60;82.20;;;9.69;66.77;99166.00;5052282;28;20124;-79
2022/04/24 04:41:38;;;;;;;14.52;9.43;;;10.50;82.10;;;9.72;67.11;99176.44;5048341;28;20052;-79
2022/04/24 04:44:06;;;;;;;15.10;10.40;;;10.50;82.30;;;9.68;67.00;99165.16;5051655;28;20418;-79
2022/04/24 04:46:33;;;;;;;12.52;9.40;;;10.50;82.50;;;9.67;67.41;99168.09;5052781;28;20036;-85
2022/04/24 04:49:02;;;;;;;13.32;9.80;;;10.50;82.50;;;9.70;67.05;99171.22;5050903;28;20064;-82
2022/04/24 04:51:29;;;;;;;13.25;9.55;;;10.60;82.40;;;9.72;67.33;99165.56;5036661;28;20037;-77
2022/04/24 04:53:57;;;;;;;13.05;9.52;;;10.60;82.40;;;9.70;67.09;99173.94;5051528;28;20120;-81
2022/04/24 04:56:24;;;;;;;12.38;9.50;;;10.50;82.40;;;9.64;67.76;99173.97;5052462;28;20124;-79
2022/04/24 04:58:51;;;;;;;14.50;9.60;;;10.40;82.70;;;9.64;67.72;99171.25;5052520;28;20045;-79
2022/04/24 05:01:19;;;;;;;12.95;9.48;;;10.50;82.90;;;9.69;67.72;99169.56;5057572;23;20357;-77
2022/04/24 05:03:46;;;;;;;13.32;9.50;;;10.50;82.90;;;9.68;67.74;99181.47;5026034;28;20131;-78
2022/04/24 05:06:14;;;;;;;13.23;9.50;;;10.50;82.90;;;9.63;67.93;99181.25;5024884;28;20041;-78
2022/04/24 05:08:41;;;;;;;13.23;9.23;;;10.40;83.00;;;9.65;68.39;99176.44;5032556;28;20041;-77
2022/04/24 05:11:09;;;;;;;17.25;9.63;;;10.50;83.20;;;9.68;68.40;99178.75;5034163;28;20048;-77
2022/04/24 05:13:36;;;;;;;12.38;8.82;;;10.50;83.10;;;9.66;68.26;99180.84;5031704;28;20579;-77
2022/04/24 05:16:03;;;;;;;15.88;9.13;;;10.40;83.20;;;9.61;68.70;99196.94;5032142;28;20037;-78
2022/04/24 05:18:31;;;;;;;21.73;8.90;;;10.40;83.50;;;9.60;68.52;99198.00;5032311;28;20622;-78
2022/04/24 05:20:59;;;;;;;16.77;9.20;;;10.50;84.00;;;9.62;68.69;99193.19;5030887;28;20045;-77
2022/04/24 05:23:27;;;;;;;12.80;8.65;;;10.50;83.80;;;9.61;68.37;99196.94;5031758;28;20041;-77
2022/04/24 05:25:54;;;;;;;12.50;9.23;;;10.40;83.60;;;9.67;69.18;99189.81;5031888;28;20041;-77
2022/04/24 05:28:21;;;;;;;11.45;7.97;;;10.50;83.80;;;9.73;68.77;99189.00;5031827;28;20041;-77
2022/04/24 05:30:49;;;;;;;13.60;8.82;;;10.60;83.30;;;9.79;68.86;99186.25;5032010;28;20044;-77
2022/04/24 05:33:19;;;;;;;13.90;8.75;;;10.70;83.00;;;9.85;68.50;99194.59;5030776;28;20045;-77
2022/04/24 05:35:46;;;;;;;13.95;9.10;;;10.80;82.90;;;9.86;68.27;99185.38;5031300;28;20508;-77
2022/04/24 05:38:13;;;;;;;13.07;8.90;;;10.80;82.80;;;9.88;68.60;99191.44;5032034;28;20047;-77
2022/04/24 05:40:42;;;;;;;13.18;8.85;;;10.80;82.50;;;9.94;68.52;99206.91;5030239;28;20128;-78
2022/04/24 05:43:09;;;;;;;12.80;8.75;;;11.00;82.70;;;9.94;68.12;99196.88;5013621;28;20072;-78
2022/04/24 05:45:36;;;;;;;14.40;8.68;;;10.80;82.00;;;9.94;68.46;99199.59;5033781;28;20044;-77
2022/04/24 05:48:04;;;;;;;15.43;8.75;;;10.90;82.30;;;9.98;68.57;99200.00;5030457;28;20042;-78
2022/04/24 05:50:33;;;;;;;12.55;8.80;;;11.00;82.20;;;9.99;68.25;99204.38;5030824;28;20041;-78
2022/04/24 05:53:02;;;;;;;12.02;8.25;;;11.00;82.10;;;10.04;67.96;99204.59;5030599;28;20073;-78
2022/04/24 05:55:29;;;;;;;12.65;7.93;;;11.00;81.60;;;10.10;68.07;99217.31;5031732;28;20041;-78
2022/04/24 05:57:58;;;;;;;13.18;7.88;;;11.10;81.90;;;10.15;68.15;99203.91;5031500;28;20049;-78
2022/04/24 06:00:25;;;;;;;12.63;8.48;;;11.20;81.70;;;10.20;67.55;99216.03;5030773;28;20072;-78
2022/04/24 06:02:53;;;;;;;11.80;8.20;;;11.10;81.40;;;10.17;67.77;99207.25;5030842;28;20045;-78
2022/04/24 06:05:21;;;;;;;11.50;8.30;;;11.20;81.20;;;10.26;67.78;99204.28;5031669;28;20122;-78
2022/04/24 06:07:48;;;;;;;12.48;8.40;;;11.30;81.40;;;10.37;68.11;99211.81;5033667;28;20042;-78
2022/04/24 06:10:15;;;;;;;12.43;8.32;;;11.50;81.70;;;10.39;67.40;99208.88;5034640;28;20036;-78
2022/04/24 06:12:48;;;;;;;13.32;8.45;;;11.50;80.60;;;10.43;66.90;99205.50;5030624;28;20129;-78
2022/04/24 06:15:20;;;;;;;11.38;7.55;;;11.60;80.00;;;10.48;66.94;99208.41;5035139;28;20124;-79
2022/04/24 06:17:49;;;;;;;10.68;8.05;;;11.60;79.90;;;10.54;66.78;99210.28;5022306;28;20329;-78
2022/04/24 06:20:18;;;;;;;10.75;7.90;;;11.70;79.60;;;10.59;66.31;99209.63;5030038;28;20045;-79
2022/04/24 06:22:46;;;;;;;15.70;8.30;;;11.70;79.30;;;10.61;66.45;99207.53;5029530;28;20495;-78
2022/04/24 06:25:18;;;;;;;14.85;8.15;;;11.80;79.30;;;10.70;66.23;99206.22;5019476;28;20123;-78
2022/04/24 06:27:46;;;;;;;11.52;7.80;;;12.00;78.60;;;10.86;65.72;99198.59;5020904;28;20056;-78
2022/04/24 06:30:17;;;;;;;10.57;7.85;;;12.60;76.00;;;11.05;65.96;99207.69;5029927;28;20037;-79
2022/04/24 06:32:46;;;;;;;12.55;7.50;;;13.20;74.30;;;11.28;65.89;99198.94;5029137;28;20133;-78
2022/04/24 06:35:15;;;;;;;11.48;7.28;;;13.80;73.50;;;11.55;65.42;99199.53;5029237;28;20099;-78
2022/04/24 06:37:44;;;;;;;11.70;7.63;;;14.40;71.80;;;11.69;63.62;99206.53;5030525;28;20075;-79
2022/04/24 06:40:14;;;;;;;14.00;7.60;;;14.50;70.00;;;11.89;63.47;99205.50;5029611;28;20059;-79
2022/04/24 06:42:53;;;;;;;11.43;7.72;;;14.80;69.50;;;12.08;62.44;99201.75;5030719;28;20516;-79
2022/04/24 06:45:25;;;;;;;10.68;7.95;;;14.90;68.90;;;12.18;61.94;99211.31;5029893;28;20049;-80
2022/04/24 06:47:54;;;;;;;13.90;8.52;;;14.70;69.30;;;12.20;61.46;99201.00;5029887;28;20056;-79
2022/04/24 06:50:22;;;;;;;11.98;7.97;;;14.40;69.70;;;12.22;60.85;99199.72;5039287;28;20047;-79
2022/04/24 06:52:58;;;;;;;13.43;7.95;;;14.20;69.40;;;12.29;61.34;99214.09;5044832;28;20399;-79
2022/04/24 06:55:26;;;;;;;11.07;7.65;;;14.10;71.00;;;12.37;60.92;99207.50;5050186;28;20061;-80
2022/04/24 06:57:53;;;;;;;10.63;7.57;;;14.00;71.00;;;12.29;59.79;99202.34;5039464;28;20036;-79
2022/04/24 07:00:23;;;;;;;10.45;7.85;;;13.70;71.10;;;12.28;60.23;99204.25;5037862;28;20120;-79
2022/04/24 07:02:51;;;;;;;10.93;7.70;;;13.60;71.90;;;12.29;60.60;99192.28;5029512;28;20033;-79
2022/04/24 07:05:21;;;;;;;11.48;8.38;;;13.50;72.40;;;12.23;60.69;99201.38;5030090;28;20468;-79
2022/04/24 07:07:49;;;;;;;10.90;8.10;;;13.40;72.90;;;12.31;60.52;99211.16;5030165;28;20045;-79
2022/04/24 07:10:16;;;;;;;10.95;7.22;;;13.50;73.30;;;12.39;61.08;99210.81;5029926;28;20044;-79
2022/04/24 07:12:48;;;;;;;11.00;7.75;;;13.50;73.30;;;12.44;61.19;99205.53;5031912;28;20095;-80
2022/04/24 07:15:17;;;;;;;11.45;7.85;;;13.60;73.70;;;12.48;60.60;99212.19;5033896;28;20499;-80
2022/04/24 07:17:46;;;;;;;11.63;7.90;;;13.60;72.80;;;12.45;60.18;99211.81;5028790;28;20414;-85
2022/04/24 07:20:16;;;;;;;11.10;8.38;;;13.50;72.60;;;12.44;59.63;99216.44;5029905;28;20128;-77
2022/04/24 07:22:45;;;;;;;13.25;8.30;;;13.50;72.80;;;12.36;59.84;99208.56;5029087;28;20048;-77
2022/04/24 07:25:14;;;;;;;11.23;8.65;;;13.40;73.10;;;12.36;59.58;99216.75;5028566;28;20075;-76
2022/04/24 07:27:41;;;;;;;10.27;7.78;;;13.30;72.90;;;12.42;59.97;99217.75;5028800;28;20037;-76
2022/04/24 07:30:13;;;;;;;11.93;8.45;;;13.40;73.50;;;12.44;60.49;99221.91;5012530;28;20455;-76
2022/04/24 07:32:42;;;;;;;17.27;8.45;;;13.50;73.60;;;12.50;59.33;99214.69;5029642;28;20042;-76
2022/04/24 07:35:16;;;;;;;11.65;8.55;;;13.50;72.10;;;12.47;58.99;99218.72;5038153;28;20080;-77
2022/04/24 07:37:43;;;;;;;13.27;8.63;;;13.50;72.00;;;12.52;59.42;99221.56;5029696;28;20049;-76
2022/04/24 07:40:14;;;;;;;10.95;7.70;;;13.50;72.40;;;12.58;59.47;99232.66;5027462;28;20109;-76
2022/04/24 07:42:49;;;;;;;10.93;8.20;;;13.60;72.50;;;12.59;58.80;99226.13;5029026;28;20049;-75
2022/04/24 07:45:21;;;;;;;11.10;7.70;;;13.60;72.00;;;12.59;58.80;99224.25;5030416;28;20136;-75
2022/04/24 07:47:49;;;;;;;13.77;7.63;;;13.60;72.00;;;12.61;58.88;99216.66;5049684;28;20068;-75
2022/04/24 07:50:20;;;;;;;11.10;7.68;;;13.60;72.40;;;12.69;59.51;99231.88;5047882;28;20037;-75
2022/04/24 07:52:48;;;;;;;16.60;8.10;;;13.70;72.70;;;12.77;58.92;99226.09;5028751;28;20099;-75
2022/04/24 07:55:18;;;;;;;13.65;8.02;;;13.80;72.20;;;12.80;58.41;99231.09;5028475;28;20280;-75
2022/04/24 07:57:46;;;;;;;12.95;8.90;;;13.80;71.60;;;12.85;58.91;99238.59;5011328;28;20072;-75
2022/04/24 08:00:16;;;;;;;14.88;8.45;;;13.80;72.30;;;12.86;58.06;99230.16;5012982;28;20128;-76
2022/04/24 08:02:53;;;;;;;14.40;8.82;;;13.80;71.30;;;12.81;58.48;99237.38;5028001;28;20048;-76
2022/04/24 08:05:26;;;;;;;10.50;8.07;;;13.80;72.00;;;12.83;58.32;99232.53;5028512;28;20033;-75
2022/04/24 08:07:56;;;;;;;12.18;8.27;;;13.80;71.90;;;12.89;58.35;99254.28;5008401;28;20130;-75
2022/04/24 08:10:26;;;;;;;11.90;8.43;;;13.80;71.50;;;12.84;58.31;99236.94;5011485;28;20061;-75
2022/04/24 08:12:54;;;;;;;13.40;8.55;;;13.80;71.90;;;12.91;58.48;99232.22;5032936;28;20051;-75
2022/04/24 08:15:21;;;;;;;13.95;8.40;;;13.90;72.00;;;13.05;59.54;99227.41;5033552;28;20041;-75
2022/04/24 08:17:48;;;;;;;16.88;8.75;;;14.10;72.90;;;13.18;58.81;99238.13;5033287;28;20052;-75
2022/04/24 08:20:18;;;;;;;13.52;8.10;;;14.30;72.20;;;13.27;59.10;99238.63;5033327;28;20124;-75
2022/04/24 08:22:49;;;;;;;12.68;8.55;;;14.40;72.00;;;13.32;57.61;99232.47;5024097;28;20117;-75
2022/04/24 08:25:17;;;;;;;;;;;14.30;70.20;;;13.37;58.32;99236.19;5032989;28;20052;-76
2022/04/24 08:27:46;;;;;;;13.02;8.63;;;14.50;71.20;;;13.40;57.29;99245.81;5032777;28;20024;-75
2022/04/24 08:30:15;;;;;;;11.88;8.98;;;14.40;69.90;;;13.32;56.80;99237.94;5032616;28;20120;-76
2022/04/24 08:32:43;;;;;;;13.35;8.35;;;14.30;69.90;;;13.37;57.36;99224.44;5014264;28;20049;-75
2022/04/24 08:35:13;;;;;;;14.05;8.88;;;14.40;70.70;;;13.49;57.65;99219.81;5034791;28;20167;-75
2022/04/24 08:37:41;;;;;;;11.38;8.70;;;14.50;70.20;;;13.57;58.07;99222.19;5032283;28;20091;-76
2022/04/24 08:40:13;;;;;;;13.30;8.73;;;14.70;71.20;;;13.66;58.18;99218.03;5028095;28;20045;-75
2022/04/24 08:42:40;;;;;;;14.00;9.48;;;14.80;70.80;;;13.76;57.20;99222.91;5031626;28;20077;-76
2022/04/24 08:45:12;;;;;;;12.35;8.95;;;14.90;69.50;;;13.83;56.52;99222.78;5032500;28;20046;-76
2022/04/24 08:47:40;;;;;;;13.73;10.43;;;15.00;68.90;;;13.81;56.44;99214.00;5036303;28;20461;-76
2022/04/24 08:50:08;;;;;;;12.23;9.48;;;14.90;68.90;;;13.82;55.68;99219.25;5032443;28;20073;-76
2022/04/24 08:52:36;;;;;;;17.05;10.02;;;14.90;68.10;;;13.77;55.68;99224.59;5032451;28;20103;-76
2022/04/24 08:55:05;;;;;;;14.23;9.35;;;14.70;67.90;;;13.61;55.56;99225.28;5032010;28;20038;-76
2022/04/24 08:57:33;;;;;;;13.95;9.57;;;14.60;68.70;;;13.64;55.71;99233.84;5033749;28;20113;-76
2022/04/24 09:00:02;;;;;;;12.30;9.07;;;14.70;69.00;;;13.68;55.93;99220.53;5028096;28;20407;-76
2022/04/24 09:02:29;;;;;;;12.45;8.88;;;14.70;69.00;;;13.78;57.26;99217.19;5031368;28;20041;-75
2022/04/24 09:04:57;;;;;;;19.83;9.18;;;14.90;70.20;;;13.94;58.22;99232.09;5031934;28;20065;-75
2022/04/24 09:07:32;;;;;;;13.38;9.38;;;15.10;71.10;;;13.95;56.14;99220.88;5027123;28;20547;-76
2022/04/24 09:10:07;;;;;;;12.85;9.45;;;15.10;69.00;;;14.00;56.23;99223.75;5033506;28;20041;-76
2022/04/24 09:12:37;;;;;;;12.57;8.73;;;15.20;69.00;;;14.11;56.41;99213.00;5012183;28;20046;-76
2022/04/24 09:15:07;;;;;;;11.98;9.40;;;15.30;69.40;;;14.15;55.81;99219.69;5027924;28;20037;-76
2022/04/24 09:17:36;;;;;;;13.88;9.40;;;15.40;68.10;;;14.19;55.16;99215.41;5031896;28;20099;-76
2022/04/24 09:20:17;;;;;;;14.52;9.93;;;15.40;67.30;;;14.11;53.82;99222.06;5031030;28;20039;-75
2022/04/24 09:22:46;;;;;;;14.30;9.60;;;15.10;66.10;;;14.00;54.51;99222.91;5031031;28;20037;-76
2022/04/24 09:25:13;;;;;;;15.18;10.20;;;15.00;66.90;;;14.03;54.79;99217.81;5030422;28;20509;-75
2022/04/24 09:27:42;;;;;;;14.80;9.77;;;15.10;67.60;;;14.10;54.53;99220.41;5032105;28;20262;-77
2022/04/24 09:30:15;;;;;;;13.55;8.88;;;15.20;67.20;;;14.09;54.23;99210.53;5034810;28;20099;-77
2022/04/24 09:32:48;;;;;;;14.10;9.95;;;15.10;67.00;;;14.08;53.85;99201.47;5029657;28;20120;-77
2022/04/24 09:35:26;;;;;;;14.80;10.23;;;15.10;66.50;;;14.06;53.79;99209.09;5029595;28;20496;-75
2022/04/24 09:38:08;;;;;;;17.42;10.25;;;15.10;66.80;;;14.12;54.58;99203.75;5029020;28;20045;-75
2022/04/24 09:40:40;;;;;;;18.83;10.95;;;15.20;67.40;;;14.20;54.28;99206.09;5029958;28;20045;-76
2022/04/24 09:43:11;;;;;;;14.82;10.00;;;15.30;67.10;;;14.28;54.62;99222.16;5024027;28;20491;-76
2022/04/24 09:45:40;;;;;;;14.70;10.18;;;15.40;66.70;;;14.29;54.18;99226.56;5027399;28;20136;-77
2022/04/24 09:48:15;;;;;;;13.07;9.85;;;15.40;66.90;;;14.31;53.36;99207.16;5028955;28;20045;-76
2022/04/24 09:50:43;;;;;;;14.43;10.52;;;15.40;65.50;;;14.33;53.22;99222.25;5010640;28;20045;-76
2022/04/24 09:53:13;;;;;;;15.43;10.45;;;15.40;65.40;;;14.37;53.65;99220.69;5027457;28;20037;-77
2022/04/24 09:55:43;;;;;;;13.10;9.90;;;15.50;65.90;;;14.38;53.78;99208.69;5030276;28;20041;-77
2022/04/24 09:58:13;;;;;;;16.20;10.77;;;15.50;66.30;;;14.46;53.95;99212.97;5030188;28;20474;-78
2022/04/24 10:00:41;;;;;;;17.20;10.77;;;15.60;66.20;;;14.53;54.41;99210.09;5030200;28;20124;-77
2022/04/24 10:03:09;;;;;;;15.02;10.75;;;15.70;67.20;;;14.62;53.79;99216.84;5029452;28;20087;-78
2022/04/24 10:05:39;;;;;;;15.90;10.48;;;15.80;66.10;;;14.61;52.65;99210.56;5030140;28;20491;-77
2022/04/24 10:08:08;;;;;;;15.15;11.27;;;15.80;64.90;;;14.62;52.30;99214.13;5008541;28;20095;-78
2022/04/24 10:10:35;;;;;;;14.07;10.23;;;15.70;64.40;;;14.60;52.41;99206.16;5028718;28;20395;-77
2022/04/24 10:13:05;;;;;;;13.55;10.05;;;15.80;64.60;;;14.70;53.32;99204.69;5028817;28;20042;-77
2022/04/24 10:15:36;;;;;;;18.85;11.10;;;15.90;65.90;;;14.79;53.13;99217.78;5010540;28;20042;-77
2022/04/24 10:18:41;;;;;;;15.25;10.82;;;16.00;65.30;;;14.78;51.93;99207.88;5028423;28;20041;-77
2022/04/24 10:21:48;;;;;;;15.80;9.93;;;15.90;64.00;;;14.79;52.88;99209.56;5029005;28;20099;-78
2022/04/24 10:24:15;;;;;;;12.55;9.68;;;16.00;64.60;;;14.78;51.75;99213.34;5028402;28;20087;-78